Pacific Zircon — D5CH8 — position and weather

sailwx.info

Track history (hours):
 
Tides and Currents Weather Stations Pressure Air Temp Water Temp Dewpoint Dewpoint Depression Visibility Wind Speed Wind Dir Waves Ship Positions

Pacific Zircon

Last reported at 2018-May-19 02:38 UTC. Time now 2018-Jun-20 20:33 UTC.
Position N 17°32' E 070°40'.
Warning: this ship's position is 32 days out of date.

Length 183 m; draft 12 m.

Type: Ship. MMSI: 636015704.

Date/timePositionNaut miles runAvg speedWind from/ knotsBaromVisibWave heightAir tempDewpointWater temp
2018-May-19 02:38N 17°32' E 070°40'313.0
2018-May-19 02:23N 17°35' E 070°39'513.0
2018-May-19 01:59N 17°40' E 070°37'613.1
2018-May-19 01:30N 17°46' E 070°35'812.7
2018-May-19 00:52N 17°54' E 070°32'712.7
2018-May-19 00:18N 18°00' E 070°29'1912.9
2018-May-18 22:48N 18°18' E 070°22'613.2
2018-May-18 22:22N 18°24' E 070°20'1413.3
2018-May-18 21:21N 18°36' E 070°14'713.1
2018-May-18 20:47N 18°43' E 070°12'412.9
2018-May-18 20:29N 18°47' E 070°10'613.1
2018-May-18 20:00N 18°53' E 070°08'612.9
2018-May-18 19:30N 18°59' E 070°05'912.5
2018-May-18 18:45N 19°07' E 070°02'512.3
2018-May-18 18:19N 19°13' E 069°60'2012.5
2018-May-18 16:45N 19°31' E 069°52'312.5
2018-May-18 16:30N 19°34' E 069°51'812.5
2018-May-18 15:53N 19°41' E 069°48'512.4
2018-May-18 15:29N 19°45' E 069°46'612.5
2018-May-18 14:59N 19°51' E 069°44'612.3
2018-May-18 14:28N 19°57' E 069°41'612.3
2018-May-18 14:00N 20°02' E 069°39'612.4
2018-May-18 13:30N 20°08' E 069°36'612.4
2018-May-18 13:00N 20°14' E 069°34'712.4
2018-May-18 12:27N 20°20' E 069°32'612.4
2018-May-18 12:00N 20°26' E 069°30'712.3
2018-May-18 11:28N 20°32' E 069°27'612.4
2018-May-18 11:00N 20°37' E 069°25'612.3
2018-May-18 10:29N 20°43' E 069°22'612.4
2018-May-18 10:00N 20°49' E 069°20'  
2018-May-16 03:19N 22°30' E 069°50'1 3.8
2018-May-16 02:57N 22°31' E 069°49'3 6.8
2018-May-16 02:30N 22°32' E 069°46'3 6.2
2018-May-16 02:00N 22°34' E 069°43'4 7.6
2018-May-16 01:30N 22°37' E 069°46'4 8.3
2018-May-16 01:00N 22°39' E 069°50'4 7.6
2018-May-16 00:30N 22°38' E 069°54'1 0.2
2018-May-15 19:46N 22°37' E 069°55'77 4.8
2018-May-15 03:39N 22°22' E 068°34'215.7
2018-May-15 03:30N 22°23' E 068°31'815.5
2018-May-15 03:00N 22°25' E 068°23'815.4
2018-May-15 02:30N 22°26' E 068°15'  
Track history (hours):
 
Tides and Currents Weather Stations Pressure Air Temp Water Temp Dewpoint Dewpoint Depression Visibility Wind Speed Wind Dir Waves Ship Positions

Pacific Zircon

Last reported at 2018-May-19 02:38 UTC. Time now 2018-Jun-20 20:33 UTC.
Position N 17°32' E 070°40'.
Warning: this ship's position is 32 days out of date.

Length 183 m; draft 12 m.

Type: Ship. MMSI: 636015704.

Date/timePositionNaut miles runAvg speedWind from/ knotsBaromVisibWave heightAir tempDewpointWater temp
2018-May-19 02:38N 17°32' E 070°40'313.0
2018-May-19 02:23N 17°35' E 070°39'513.0
2018-May-19 01:59N 17°40' E 070°37'613.1
2018-May-19 01:30N 17°46' E 070°35'812.7
2018-May-19 00:52N 17°54' E 070°32'712.7
2018-May-19 00:18N 18°00' E 070°29'1912.9
2018-May-18 22:48N 18°18' E 070°22'613.2
2018-May-18 22:22N 18°24' E 070°20'1413.3
2018-May-18 21:21N 18°36' E 070°14'713.1
2018-May-18 20:47N 18°43' E 070°12'412.9
2018-May-18 20:29N 18°47' E 070°10'613.1
2018-May-18 20:00N 18°53' E 070°08'612.9
2018-May-18 19:30N 18°59' E 070°05'912.5
2018-May-18 18:45N 19°07' E 070°02'512.3
2018-May-18 18:19N 19°13' E 069°60'2012.5
2018-May-18 16:45N 19°31' E 069°52'312.5
2018-May-18 16:30N 19°34' E 069°51'812.5
2018-May-18 15:53N 19°41' E 069°48'512.4
2018-May-18 15:29N 19°45' E 069°46'612.5
2018-May-18 14:59N 19°51' E 069°44'612.3
2018-May-18 14:28N 19°57' E 069°41'612.3
2018-May-18 14:00N 20°02' E 069°39'612.4
2018-May-18 13:30N 20°08' E 069°36'612.4
2018-May-18 13:00N 20°14' E 069°34'712.4
2018-May-18 12:27N 20°20' E 069°32'612.4
2018-May-18 12:00N 20°26' E 069°30'712.3
2018-May-18 11:28N 20°32' E 069°27'612.4
2018-May-18 11:00N 20°37' E 069°25'612.3
2018-May-18 10:29N 20°43' E 069°22'612.4
2018-May-18 10:00N 20°49' E 069°20'  
2018-May-16 03:19N 22°30' E 069°50'1 3.8
2018-May-16 02:57N 22°31' E 069°49'3 6.8
2018-May-16 02:30N 22°32' E 069°46'3 6.2
2018-May-16 02:00N 22°34' E 069°43'4 7.6
2018-May-16 01:30N 22°37' E 069°46'4 8.3
2018-May-16 01:00N 22°39' E 069°50'4 7.6
2018-May-16 00:30N 22°38' E 069°54'1 0.2
2018-May-15 19:46N 22°37' E 069°55'77 4.8
2018-May-15 03:39N 22°22' E 068°34'215.7
2018-May-15 03:30N 22°23' E 068°31'815.5
2018-May-15 03:00N 22°25' E 068°23'815.4
2018-May-15 02:30N 22°26' E 068°15'  

Dump ship's entire track history